Eleanor Hadley — WDI9237 — position and weather

sailwx.info

Track history (hours):
 
Tides and Currents Weather Stations Pressure Air Temp Water Temp Dewpoint Dewpoint Depression Visibility Wind Speed Wind Dir Waves Ship Positions

Eleanor Hadley

Owner: Genesis Marine, LLC, Houston, TX. More information available from US FCC via Universal Licensing System and Coast Guard Vessel Documentation Center.

Last reported at 2018-Feb-22 12:54 UTC. Time now 2018-Feb-24 15:58 UTC.
Position N 29°34' W 090°30'.

Length 26 m; draft 2.9 m.

Type: Ship (hazmat cat B). MMSI: 367746670.

Date/timePositionNaut miles runAvg speedWind from/ knotsBaromVisibWave heightAir tempDewpointWater temp
2018-Feb-22 12:54N 29°34' W 090°30'2 5.2
2018-Feb-22 12:30N 29°34' W 090°32'1 2.9
2018-Feb-22 12:00N 29°34' W 090°34'1 1.3
2018-Feb-22 11:30N 29°34' W 090°34'2 4.5
2018-Feb-22 11:00N 29°35' W 090°37'1 2.1
2018-Feb-22 10:31N 29°35' W 090°38'2 4.2
2018-Feb-22 10:00N 29°36' W 090°40'2 4.1
2018-Feb-22 09:30N 29°37' W 090°42'2 4.0
2018-Feb-22 09:00N 29°35' W 090°43'0 0.7
2018-Feb-22 08:30N 29°34' W 090°43'0 0.7
2018-Feb-22 08:00N 29°34' W 090°43'2 4.1
2018-Feb-22 07:30N 29°33' W 090°45'1 1.6
2018-Feb-22 07:00N 29°32' W 090°46'1 3.0
2018-Feb-22 06:30N 29°32' W 090°47'6 5.9
2018-Feb-22 05:29N 29°33' W 090°54'58 4.2
2018-Feb-21 15:39N 29°50' W 091°59'1 5.1
2018-Feb-21 15:29N 29°50' W 091°59'2 5.0
2018-Feb-21 14:59N 29°49' W 092°02'3 5.2
2018-Feb-21 14:30N 29°48' W 092°05'2 4.8
2018-Feb-21 14:00N 29°47' W 092°07'3 5.1
2018-Feb-21 13:30N 29°47' W 092°10'2 4.1
2018-Feb-21 13:00N 29°47' W 092°12'1 2.4
2018-Feb-21 12:30N 29°48' W 092°14'2 4.0
2018-Feb-21 12:01N 29°48' W 092°16'2 4.6
2018-Feb-21 11:30N 29°50' W 092°18'3 4.8
2018-Feb-21 10:58N 29°51' W 092°21'38 4.7
2018-Feb-21 02:54N 29°56' W 093°04'2 4.3
2018-Feb-21 02:28N 29°56' W 093°06'2 4.5
2018-Feb-21 02:00N 29°56' W 093°09'2 4.7
2018-Feb-21 01:31N 29°57' W 093°11'2 5.0
2018-Feb-21 01:00N 29°59' W 093°13'2 4.4
2018-Feb-21 00:30N 30°01' W 093°14'2 4.2
2018-Feb-21 00:00N 30°03' W 093°16'2 3.4
2018-Feb-20 23:30N 30°04' W 093°16'2 3.6
2018-Feb-20 23:00N 30°05' W 093°18'0 0.9
2018-Feb-20 22:30N 30°06' W 093°18'0 0.0
2018-Feb-20 22:00N 30°06' W 093°18'0 0.0
2018-Feb-20 21:30N 30°06' W 093°18'0 0.0
2018-Feb-20 21:00N 30°06' W 093°18'0 0.0
2018-Feb-20 20:30N 30°06' W 093°18'0 0.0
2018-Feb-20 20:00N 30°06' W 093°18'0 0.0
2018-Feb-20 19:29N 30°06' W 093°18'1 2.1
2018-Feb-20 19:01N 30°06' W 093°19'1 2.5
2018-Feb-20 18:30N 30°05' W 093°20'0 0.2
2018-Feb-20 18:00N 30°05' W 093°20'0 0.1
2018-Feb-20 17:30N 30°05' W 093°20'1 3.0
2018-Feb-20 17:01N 30°06' W 093°20'2 4.0
2018-Feb-20 16:30N 30°08' W 093°20'2 3.9
2018-Feb-20 16:00N 30°10' W 093°19'1 2.2
2018-Feb-20 15:30N 30°11' W 093°19'0 0.0
2018-Feb-20 15:00N 30°11' W 093°19'0 0.0
2018-Feb-20 14:30N 30°11' W 093°19'0 0.0
2018-Feb-20 14:01N 30°11' W 093°19'0 0.0
2018-Feb-20 13:30N 30°11' W 093°19'0 0.0
2018-Feb-20 13:00N 30°11' W 093°19'0 0.0
2018-Feb-20 12:31N 30°11' W 093°19'0 0.0
2018-Feb-20 12:00N 30°11' W 093°19'0 0.0
2018-Feb-20 11:30N 30°11' W 093°19'0 0.0
2018-Feb-20 11:00N 30°11' W 093°19'0 0.0
2018-Feb-20 10:31N 30°11' W 093°19'0 0.0
2018-Feb-20 10:01N 30°11' W 093°19'0 0.0
2018-Feb-20 09:30N 30°11' W 093°19'0 0.0
2018-Feb-20 09:00N 30°11' W 093°19'0 0.0
2018-Feb-20 08:30N 30°11' W 093°19'0 0.0
2018-Feb-20 07:48N 30°11' W 093°19'0 0.0
2018-Feb-20 07:30N 30°11' W 093°19'0 0.0
2018-Feb-20 07:00N 30°11' W 093°19'0 0.0
2018-Feb-20 06:30N 30°11' W 093°19'0 0.0
2018-Feb-20 06:01N 30°11' W 093°19'0 0.0
2018-Feb-20 05:30N 30°11' W 093°19'0 0.0
2018-Feb-20 05:00N 30°11' W 093°19'0 0.0
2018-Feb-20 04:31N 30°11' W 093°19'0 0.0
2018-Feb-20 04:00N 30°11' W 093°19'0 0.0
2018-Feb-20 03:30N 30°11' W 093°19'0 0.0
2018-Feb-20 03:00N 30°11' W 093°19'0 0.0
2018-Feb-20 02:30N 30°11' W 093°19'0 0.0
2018-Feb-20 02:00N 30°11' W 093°19'0 0.0
2018-Feb-20 01:31N 30°11' W 093°19'0 0.1
2018-Feb-20 01:00N 30°11' W 093°19'0 0.1
2018-Feb-20 00:30N 30°11' W 093°19'0 0.1
2018-Feb-20 00:00N 30°11' W 093°18'0 0.4
2018-Feb-19 23:31N 30°11' W 093°19'0 0.0
2018-Feb-19 23:00N 30°11' W 093°19'0 0.0
2018-Feb-19 22:31N 30°11' W 093°19'0 0.5
2018-Feb-19 22:00N 30°11' W 093°19'3 5.8
2018-Feb-19 21:30N 30°08' W 093°20'3 5.8
2018-Feb-19 21:01N 30°05' W 093°20'1 2.5
2018-Feb-19 20:31N 30°04' W 093°21'1 1.4
2018-Feb-19 19:59N 30°05' W 093°20'0 0.1
2018-Feb-19 19:31N 30°05' W 093°20'0 0.4
2018-Feb-19 19:00N 30°05' W 093°20'2 3.7
2018-Feb-19 18:30N 30°07' W 093°20'2 4.9
2018-Feb-19 18:00N 30°09' W 093°20'2 4.5
2018-Feb-19 17:30N 30°11' W 093°18'0 0.3
2018-Feb-19 17:00N 30°11' W 093°19'0 0.0
2018-Feb-19 16:30N 30°11' W 093°19'0 0.0
2018-Feb-19 16:00N 30°11' W 093°19'0 0.0
2018-Feb-19 15:30N 30°11' W 093°19'0 0.0
2018-Feb-19 15:00N 30°11' W 093°19'0 0.0
2018-Feb-19 14:26N 30°11' W 093°19'0 0.0
2018-Feb-19 14:00N 30°11' W 093°19'0 0.0
2018-Feb-19 13:31N 30°11' W 093°19'0 0.0
2018-Feb-19 13:00N 30°11' W 093°19'0 0.0
2018-Feb-19 12:30N 30°11' W 093°19'0 0.0
2018-Feb-19 12:00N 30°11' W 093°19'0 0.0
2018-Feb-19 11:30N 30°11' W 093°19'0 0.0
2018-Feb-19 11:00N 30°11' W 093°19'0 0.0
2018-Feb-19 10:30N 30°11' W 093°19'0 0.0
2018-Feb-19 10:01N 30°11' W 093°19'0 0.0
2018-Feb-19 09:28N 30°11' W 093°19'0 0.0
2018-Feb-19 09:00N 30°11' W 093°19'0 0.0
2018-Feb-19 08:30N 30°11' W 093°19'0 0.0
2018-Feb-19 08:00N 30°11' W 093°19'0 0.0
2018-Feb-19 07:30N 30°11' W 093°19'0 0.0
2018-Feb-19 07:00N 30°11' W 093°19'0 0.0
2018-Feb-19 06:30N 30°11' W 093°19'0 0.0
2018-Feb-19 06:01N 30°11' W 093°19'0 0.0
2018-Feb-19 05:31N 30°11' W 093°19'0 0.0
2018-Feb-19 05:00N 30°11' W 093°19'0 0.0
2018-Feb-19 04:31N 30°11' W 093°19'0 0.0
2018-Feb-19 04:00N 30°11' W 093°19'0 0.0
2018-Feb-19 03:31N 30°11' W 093°19'0 0.0
2018-Feb-19 03:00N 30°11' W 093°19'0 0.0
2018-Feb-19 02:31N 30°11' W 093°19'0 0.0
2018-Feb-19 02:01N 30°11' W 093°19'0 0.0
2018-Feb-19 01:30N 30°11' W 093°19'0 0.0
2018-Feb-19 01:00N 30°11' W 093°19'0 0.0
2018-Feb-19 00:31N 30°11' W 093°19'0 0.0
2018-Feb-19 00:01N 30°11' W 093°19'0 0.0
2018-Feb-18 23:30N 30°11' W 093°19'0 0.0
2018-Feb-18 23:01N 30°11' W 093°19'0 0.0
2018-Feb-18 22:30N 30°11' W 093°19'0 0.0
2018-Feb-18 22:00N 30°11' W 093°19'0 0.0
2018-Feb-18 21:30N 30°11' W 093°19'0 0.0
2018-Feb-18 21:00N 30°11' W 093°19'0 0.0
2018-Feb-18 20:31N 30°11' W 093°19'0 0.0
2018-Feb-18 20:01N 30°11' W 093°19'0 0.1
2018-Feb-18 19:30N 30°11' W 093°19'0 0.3
2018-Feb-18 19:00N 30°11' W 093°18'0 0.0
2018-Feb-18 18:31N 30°11' W 093°18'0 0.7
2018-Feb-18 18:00N 30°11' W 093°19'3 6.4
2018-Feb-18 17:30N 30°08' W 093°20'3 5.8
2018-Feb-18 17:00N 30°05' W 093°20'1 1.7
2018-Feb-18 16:31N 30°04' W 093°21'1 1.2
2018-Feb-18 16:00N 30°05' W 093°20'1 1.3
2018-Feb-18 15:30N 30°05' W 093°20'0 0.0
2018-Feb-18 15:00N 30°05' W 093°20'0 0.0
2018-Feb-18 14:31N 30°05' W 093°20'0 0.0
2018-Feb-18 14:00N 30°05' W 093°20'0 0.0
2018-Feb-18 13:30N 30°05' W 093°20'0 0.0
2018-Feb-18 13:00N 30°05' W 093°20'0 0.0
2018-Feb-18 12:30N 30°05' W 093°20'0 0.0
2018-Feb-18 12:01N 30°05' W 093°20'0 0.0
2018-Feb-18 11:30N 30°05' W 093°20'0 0.0
2018-Feb-18 11:00N 30°05' W 093°20'0 0.0
2018-Feb-18 10:31N 30°05' W 093°20'0 0.0
2018-Feb-18 10:00N 30°05' W 093°20'0 0.0
2018-Feb-18 09:30N 30°05' W 093°20'0 0.0
2018-Feb-18 09:00N 30°05' W 093°20'0 0.0
2018-Feb-18 08:31N 30°05' W 093°20'0 0.0
2018-Feb-18 08:00N 30°05' W 093°20'0 0.0
2018-Feb-18 07:28N 30°05' W 093°20'0 0.0
2018-Feb-18 07:00N 30°05' W 093°20'1 1.2
2018-Feb-18 06:30N 30°05' W 093°20'2 4.1
2018-Feb-18 06:00N 30°04' W 093°22'2 3.7
2018-Feb-18 05:30N 30°04' W 093°24'3 5.6
2018-Feb-18 05:01N 30°04' W 093°28'3 5.6
2018-Feb-18 04:30N 30°04' W 093°31'3 5.5
2018-Feb-18 04:00N 30°04' W 093°34'3 5.8
2018-Feb-18 03:29N 30°04' W 093°37'4 6.3
2018-Feb-18 02:55N 30°04' W 093°42'3 6.3
2018-Feb-18 02:30N 30°02' W 093°44'4 7.1
2018-Feb-18 02:01N 29°60' W 093°47'4 7.8
2018-Feb-18 01:31N 29°58' W 093°51'4 8.5
2018-Feb-18 01:00N 29°54' W 093°54'4 8.4
2018-Feb-18 00:31N 29°51' W 093°57'3 5.6
2018-Feb-18 00:01N 29°49' W 093°59'3 5.3
2018-Feb-17 23:30N 29°47' W 094°01'1 2.7
2018-Feb-17 23:00N 29°46' W 094°02'3 5.8
2018-Feb-17 22:31N 29°45' W 094°05'3 5.6
2018-Feb-17 22:01N 29°43' W 094°07'3 5.0
2018-Feb-17 21:31N 29°41' W 094°10'2 4.9
2018-Feb-17 21:01N 29°41' W 094°13'3 5.3
2018-Feb-17 20:30N 29°39' W 094°15'3 5.1
2018-Feb-17 19:59N 29°38' W 094°18'2 3.9
2018-Feb-17 19:31N 29°37' W 094°20'2 3.5
2018-Feb-17 18:58N 29°36' W 094°22'2 3.6
2018-Feb-17 18:28N 29°36' W 094°24'2 3.2
2018-Feb-17 17:43N 29°34' W 094°25'1 3.6
2018-Feb-17 17:30N 29°34' W 094°26'11 0.7
2018-Feb-17 02:54N 29°29' W 094°37'0 0.0
2018-Feb-17 02:29N 29°29' W 094°37'0 0.0
2018-Feb-17 01:58N 29°29' W 094°37'0 0.0
2018-Feb-17 01:30N 29°29' W 094°37'1 0.5
2018-Feb-17 00:12N 29°28' W 094°38'1 5.5
2018-Feb-17 00:00N 29°28' W 094°39'9 4.0
2018-Feb-16 21:43N 29°22' W 094°47'9 3.9
2018-Feb-16 19:22N 29°30' W 094°52'3 8.0
2018-Feb-16 18:57N 29°33' W 094°55'3 7.3
2018-Feb-16 18:30N 29°36' W 094°57'4 7.1
2018-Feb-16 18:00N 29°39' W 094°58'4 7.1
2018-Feb-16 17:30N 29°42' W 095°00'3 6.8
2018-Feb-16 17:00N 29°44' W 095°03'3 5.2
2018-Feb-16 16:25N 29°46' W 095°06'1 1.4
2018-Feb-16 15:59N 29°47' W 095°06'1 0.4
2018-Feb-16 14:46N 29°46' W 095°06'1 2.1
2018-Feb-16 14:29N 29°47' W 095°06'0 0.0
2018-Feb-16 10:58N 29°47' W 095°06'0 0.0
2018-Feb-16 09:54N 29°47' W 095°06'0 0.0
2018-Feb-16 09:27N 29°47' W 095°06'0 0.0
2018-Feb-16 09:00N 29°47' W 095°06'0 0.0
2018-Feb-16 08:23N 29°47' W 095°06'0 0.0
2018-Feb-16 07:56N 29°47' W 095°06'0 0.0
2018-Feb-16 07:27N 29°47' W 095°06'0 0.0
2018-Feb-16 06:58N 29°47' W 095°06'0 0.0
2018-Feb-16 06:30N 29°47' W 095°06'0 0.0
2018-Feb-16 05:58N 29°47' W 095°06'0 0.0
2018-Feb-16 05:27N 29°47' W 095°06'0 0.0
2018-Feb-16 05:00N 29°47' W 095°06'0 0.0
2018-Feb-16 04:29N 29°47' W 095°06'0 0.0
2018-Feb-16 03:59N 29°47' W 095°06'0 0.0
2018-Feb-16 03:30N 29°47' W 095°06'0 0.0
2018-Feb-16 02:57N 29°47' W 095°06'0 0.0
2018-Feb-16 02:24N 29°47' W 095°06'0 0.0
2018-Feb-16 01:55N 29°47' W 095°06'0 0.0
2018-Feb-16 01:24N 29°47' W 095°06'0 0.0
2018-Feb-16 00:59N 29°47' W 095°06'0 0.0
2018-Feb-15 19:35N 29°47' W 095°06'0 0.0
2018-Feb-15 10:16N 29°47' W 095°06'0 0.0
2018-Feb-15 10:00N 29°47' W 095°06'0 0.0
2018-Feb-15 09:29N 29°47' W 095°06'0 0.0
2018-Feb-15 08:58N 29°47' W 095°06'0 0.0
2018-Feb-15 08:29N 29°47' W 095°06'0 0.0
2018-Feb-15 07:59N 29°47' W 095°06'0 0.0
2018-Feb-15 07:30N 29°47' W 095°06'0 0.0
2018-Feb-15 07:00N 29°47' W 095°06'0 0.0
2018-Feb-15 06:29N 29°47' W 095°06'0 0.0
2018-Feb-15 06:00N 29°47' W 095°06'0 0.0
2018-Feb-15 05:30N 29°47' W 095°06'0 0.0
2018-Feb-15 04:59N 29°47' W 095°06'0 0.0
2018-Feb-15 04:30N 29°47' W 095°06'0 0.0
2018-Feb-15 03:54N 29°47' W 095°06'0 0.0
2018-Feb-15 03:14N 29°47' W 095°06'0 0.0
2018-Feb-15 02:55N 29°47' W 095°06'0 0.0
2018-Feb-15 02:27N 29°47' W 095°06'0 0.0
2018-Feb-14 23:03N 29°47' W 095°06'0 0.0
2018-Feb-14 22:39N 29°47' W 095°06'0 0.0
2018-Feb-14 21:30N 29°47' W 095°06'0 0.0
2018-Feb-14 20:56N 29°47' W 095°06'0 0.0
2018-Feb-14 17:50N 29°47' W 095°06'0 0.0
2018-Feb-14 17:28N 29°47' W 095°06'0 0.0
2018-Feb-14 16:55N 29°47' W 095°06'0 0.0
2018-Feb-14 16:18N 29°47' W 095°06'0 0.0
2018-Feb-14 15:18N 29°47' W 095°06'0 0.0
2018-Feb-14 15:00N 29°47' W 095°06'0 0.0
2018-Feb-14 14:05N 29°47' W 095°06'0 0.0
2018-Feb-14 13:58N 29°47' W 095°06'0 0.0
2018-Feb-14 13:27N 29°47' W 095°06'  
Track history (hours):
 
Tides and Currents Weather Stations Pressure Air Temp Water Temp Dewpoint Dewpoint Depression Visibility Wind Speed Wind Dir Waves Ship Positions

Eleanor Hadley

Owner: Genesis Marine, LLC, Houston, TX. More information available from US FCC via Universal Licensing System and Coast Guard Vessel Documentation Center.

Last reported at 2018-Feb-22 12:54 UTC. Time now 2018-Feb-24 15:58 UTC.
Position N 29°34' W 090°30'.

Length 26 m; draft 2.9 m.

Type: Ship (hazmat cat B). MMSI: 367746670.

Date/timePositionNaut miles runAvg speedWind from/ knotsBaromVisibWave heightAir tempDewpointWater temp
2018-Feb-22 12:54N 29°34' W 090°30'2 5.2
2018-Feb-22 12:30N 29°34' W 090°32'1 2.9
2018-Feb-22 12:00N 29°34' W 090°34'1 1.3
2018-Feb-22 11:30N 29°34' W 090°34'2 4.5
2018-Feb-22 11:00N 29°35' W 090°37'1 2.1
2018-Feb-22 10:31N 29°35' W 090°38'2 4.2
2018-Feb-22 10:00N 29°36' W 090°40'2 4.1
2018-Feb-22 09:30N 29°37' W 090°42'2 4.0
2018-Feb-22 09:00N 29°35' W 090°43'0 0.7
2018-Feb-22 08:30N 29°34' W 090°43'0 0.7
2018-Feb-22 08:00N 29°34' W 090°43'2 4.1
2018-Feb-22 07:30N 29°33' W 090°45'1 1.6
2018-Feb-22 07:00N 29°32' W 090°46'1 3.0
2018-Feb-22 06:30N 29°32' W 090°47'6 5.9
2018-Feb-22 05:29N 29°33' W 090°54'58 4.2
2018-Feb-21 15:39N 29°50' W 091°59'1 5.1
2018-Feb-21 15:29N 29°50' W 091°59'2 5.0
2018-Feb-21 14:59N 29°49' W 092°02'3 5.2
2018-Feb-21 14:30N 29°48' W 092°05'2 4.8
2018-Feb-21 14:00N 29°47' W 092°07'3 5.1
2018-Feb-21 13:30N 29°47' W 092°10'2 4.1
2018-Feb-21 13:00N 29°47' W 092°12'1 2.4
2018-Feb-21 12:30N 29°48' W 092°14'2 4.0
2018-Feb-21 12:01N 29°48' W 092°16'2 4.6
2018-Feb-21 11:30N 29°50' W 092°18'3 4.8
2018-Feb-21 10:58N 29°51' W 092°21'38 4.7
2018-Feb-21 02:54N 29°56' W 093°04'2 4.3
2018-Feb-21 02:28N 29°56' W 093°06'2 4.5
2018-Feb-21 02:00N 29°56' W 093°09'2 4.7
2018-Feb-21 01:31N 29°57' W 093°11'2 5.0
2018-Feb-21 01:00N 29°59' W 093°13'2 4.4
2018-Feb-21 00:30N 30°01' W 093°14'2 4.2
2018-Feb-21 00:00N 30°03' W 093°16'2 3.4
2018-Feb-20 23:30N 30°04' W 093°16'2 3.6
2018-Feb-20 23:00N 30°05' W 093°18'0 0.9
2018-Feb-20 22:30N 30°06' W 093°18'0 0.0
2018-Feb-20 22:00N 30°06' W 093°18'0 0.0
2018-Feb-20 21:30N 30°06' W 093°18'0 0.0
2018-Feb-20 21:00N 30°06' W 093°18'0 0.0
2018-Feb-20 20:30N 30°06' W 093°18'0 0.0
2018-Feb-20 20:00N 30°06' W 093°18'0 0.0
2018-Feb-20 19:29N 30°06' W 093°18'1 2.1
2018-Feb-20 19:01N 30°06' W 093°19'1 2.5
2018-Feb-20 18:30N 30°05' W 093°20'0 0.2
2018-Feb-20 18:00N 30°05' W 093°20'0 0.1
2018-Feb-20 17:30N 30°05' W 093°20'1 3.0
2018-Feb-20 17:01N 30°06' W 093°20'2 4.0
2018-Feb-20 16:30N 30°08' W 093°20'2 3.9
2018-Feb-20 16:00N 30°10' W 093°19'1 2.2
2018-Feb-20 15:30N 30°11' W 093°19'0 0.0
2018-Feb-20 15:00N 30°11' W 093°19'0 0.0
2018-Feb-20 14:30N 30°11' W 093°19'0 0.0
2018-Feb-20 14:01N 30°11' W 093°19'0 0.0
2018-Feb-20 13:30N 30°11' W 093°19'0 0.0
2018-Feb-20 13:00N 30°11' W 093°19'0 0.0
2018-Feb-20 12:31N 30°11' W 093°19'0 0.0
2018-Feb-20 12:00N 30°11' W 093°19'0 0.0
2018-Feb-20 11:30N 30°11' W 093°19'0 0.0
2018-Feb-20 11:00N 30°11' W 093°19'0 0.0
2018-Feb-20 10:31N 30°11' W 093°19'0 0.0
2018-Feb-20 10:01N 30°11' W 093°19'0 0.0
2018-Feb-20 09:30N 30°11' W 093°19'0 0.0
2018-Feb-20 09:00N 30°11' W 093°19'0 0.0
2018-Feb-20 08:30N 30°11' W 093°19'0 0.0
2018-Feb-20 07:48N 30°11' W 093°19'0 0.0
2018-Feb-20 07:30N 30°11' W 093°19'0 0.0
2018-Feb-20 07:00N 30°11' W 093°19'0 0.0
2018-Feb-20 06:30N 30°11' W 093°19'0 0.0
2018-Feb-20 06:01N 30°11' W 093°19'0 0.0
2018-Feb-20 05:30N 30°11' W 093°19'0 0.0
2018-Feb-20 05:00N 30°11' W 093°19'0 0.0
2018-Feb-20 04:31N 30°11' W 093°19'0 0.0
2018-Feb-20 04:00N 30°11' W 093°19'0 0.0
2018-Feb-20 03:30N 30°11' W 093°19'0 0.0
2018-Feb-20 03:00N 30°11' W 093°19'0 0.0
2018-Feb-20 02:30N 30°11' W 093°19'0 0.0
2018-Feb-20 02:00N 30°11' W 093°19'0 0.0
2018-Feb-20 01:31N 30°11' W 093°19'0 0.1
2018-Feb-20 01:00N 30°11' W 093°19'0 0.1
2018-Feb-20 00:30N 30°11' W 093°19'0 0.1
2018-Feb-20 00:00N 30°11' W 093°18'0 0.4
2018-Feb-19 23:31N 30°11' W 093°19'0 0.0
2018-Feb-19 23:00N 30°11' W 093°19'0 0.0
2018-Feb-19 22:31N 30°11' W 093°19'0 0.5
2018-Feb-19 22:00N 30°11' W 093°19'3 5.8
2018-Feb-19 21:30N 30°08' W 093°20'3 5.8
2018-Feb-19 21:01N 30°05' W 093°20'1 2.5
2018-Feb-19 20:31N 30°04' W 093°21'1 1.4
2018-Feb-19 19:59N 30°05' W 093°20'0 0.1
2018-Feb-19 19:31N 30°05' W 093°20'0 0.4
2018-Feb-19 19:00N 30°05' W 093°20'2 3.7
2018-Feb-19 18:30N 30°07' W 093°20'2 4.9
2018-Feb-19 18:00N 30°09' W 093°20'2 4.5
2018-Feb-19 17:30N 30°11' W 093°18'0 0.3
2018-Feb-19 17:00N 30°11' W 093°19'0 0.0
2018-Feb-19 16:30N 30°11' W 093°19'0 0.0
2018-Feb-19 16:00N 30°11' W 093°19'0 0.0
2018-Feb-19 15:30N 30°11' W 093°19'0 0.0
2018-Feb-19 15:00N 30°11' W 093°19'0 0.0
2018-Feb-19 14:26N 30°11' W 093°19'0 0.0
2018-Feb-19 14:00N 30°11' W 093°19'0 0.0
2018-Feb-19 13:31N 30°11' W 093°19'0 0.0
2018-Feb-19 13:00N 30°11' W 093°19'0 0.0
2018-Feb-19 12:30N 30°11' W 093°19'0 0.0
2018-Feb-19 12:00N 30°11' W 093°19'0 0.0
2018-Feb-19 11:30N 30°11' W 093°19'0 0.0
2018-Feb-19 11:00N 30°11' W 093°19'0 0.0
2018-Feb-19 10:30N 30°11' W 093°19'0 0.0
2018-Feb-19 10:01N 30°11' W 093°19'0 0.0
2018-Feb-19 09:28N 30°11' W 093°19'0 0.0
2018-Feb-19 09:00N 30°11' W 093°19'0 0.0
2018-Feb-19 08:30N 30°11' W 093°19'0 0.0
2018-Feb-19 08:00N 30°11' W 093°19'0 0.0
2018-Feb-19 07:30N 30°11' W 093°19'0 0.0
2018-Feb-19 07:00N 30°11' W 093°19'0 0.0
2018-Feb-19 06:30N 30°11' W 093°19'0 0.0
2018-Feb-19 06:01N 30°11' W 093°19'0 0.0
2018-Feb-19 05:31N 30°11' W 093°19'0 0.0
2018-Feb-19 05:00N 30°11' W 093°19'0 0.0
2018-Feb-19 04:31N 30°11' W 093°19'0 0.0
2018-Feb-19 04:00N 30°11' W 093°19'0 0.0
2018-Feb-19 03:31N 30°11' W 093°19'0 0.0
2018-Feb-19 03:00N 30°11' W 093°19'0 0.0
2018-Feb-19 02:31N 30°11' W 093°19'0 0.0
2018-Feb-19 02:01N 30°11' W 093°19'0 0.0
2018-Feb-19 01:30N 30°11' W 093°19'0 0.0
2018-Feb-19 01:00N 30°11' W 093°19'0 0.0
2018-Feb-19 00:31N 30°11' W 093°19'0 0.0
2018-Feb-19 00:01N 30°11' W 093°19'0 0.0
2018-Feb-18 23:30N 30°11' W 093°19'0 0.0
2018-Feb-18 23:01N 30°11' W 093°19'0 0.0
2018-Feb-18 22:30N 30°11' W 093°19'0 0.0
2018-Feb-18 22:00N 30°11' W 093°19'0 0.0
2018-Feb-18 21:30N 30°11' W 093°19'0 0.0
2018-Feb-18 21:00N 30°11' W 093°19'0 0.0
2018-Feb-18 20:31N 30°11' W 093°19'0 0.0
2018-Feb-18 20:01N 30°11' W 093°19'0 0.1
2018-Feb-18 19:30N 30°11' W 093°19'0 0.3
2018-Feb-18 19:00N 30°11' W 093°18'0 0.0
2018-Feb-18 18:31N 30°11' W 093°18'0 0.7
2018-Feb-18 18:00N 30°11' W 093°19'3 6.4
2018-Feb-18 17:30N 30°08' W 093°20'3 5.8
2018-Feb-18 17:00N 30°05' W 093°20'1 1.7
2018-Feb-18 16:31N 30°04' W 093°21'1 1.2
2018-Feb-18 16:00N 30°05' W 093°20'1 1.3
2018-Feb-18 15:30N 30°05' W 093°20'0 0.0
2018-Feb-18 15:00N 30°05' W 093°20'0 0.0
2018-Feb-18 14:31N 30°05' W 093°20'0 0.0
2018-Feb-18 14:00N 30°05' W 093°20'0 0.0
2018-Feb-18 13:30N 30°05' W 093°20'0 0.0
2018-Feb-18 13:00N 30°05' W 093°20'0 0.0
2018-Feb-18 12:30N 30°05' W 093°20'0 0.0
2018-Feb-18 12:01N 30°05' W 093°20'0 0.0
2018-Feb-18 11:30N 30°05' W 093°20'0 0.0
2018-Feb-18 11:00N 30°05' W 093°20'0 0.0
2018-Feb-18 10:31N 30°05' W 093°20'0 0.0
2018-Feb-18 10:00N 30°05' W 093°20'0 0.0
2018-Feb-18 09:30N 30°05' W 093°20'0 0.0
2018-Feb-18 09:00N 30°05' W 093°20'0 0.0
2018-Feb-18 08:31N 30°05' W 093°20'0 0.0
2018-Feb-18 08:00N 30°05' W 093°20'0 0.0
2018-Feb-18 07:28N 30°05' W 093°20'0 0.0
2018-Feb-18 07:00N 30°05' W 093°20'1 1.2
2018-Feb-18 06:30N 30°05' W 093°20'2 4.1
2018-Feb-18 06:00N 30°04' W 093°22'2 3.7
2018-Feb-18 05:30N 30°04' W 093°24'3 5.6
2018-Feb-18 05:01N 30°04' W 093°28'3 5.6
2018-Feb-18 04:30N 30°04' W 093°31'3 5.5
2018-Feb-18 04:00N 30°04' W 093°34'3 5.8
2018-Feb-18 03:29N 30°04' W 093°37'4 6.3
2018-Feb-18 02:55N 30°04' W 093°42'3 6.3
2018-Feb-18 02:30N 30°02' W 093°44'4 7.1
2018-Feb-18 02:01N 29°60' W 093°47'4 7.8
2018-Feb-18 01:31N 29°58' W 093°51'4 8.5
2018-Feb-18 01:00N 29°54' W 093°54'4 8.4
2018-Feb-18 00:31N 29°51' W 093°57'3 5.6
2018-Feb-18 00:01N 29°49' W 093°59'3 5.3
2018-Feb-17 23:30N 29°47' W 094°01'1 2.7
2018-Feb-17 23:00N 29°46' W 094°02'3 5.8
2018-Feb-17 22:31N 29°45' W 094°05'3 5.6
2018-Feb-17 22:01N 29°43' W 094°07'3 5.0
2018-Feb-17 21:31N 29°41' W 094°10'2 4.9
2018-Feb-17 21:01N 29°41' W 094°13'3 5.3
2018-Feb-17 20:30N 29°39' W 094°15'3 5.1
2018-Feb-17 19:59N 29°38' W 094°18'2 3.9
2018-Feb-17 19:31N 29°37' W 094°20'2 3.5
2018-Feb-17 18:58N 29°36' W 094°22'2 3.6
2018-Feb-17 18:28N 29°36' W 094°24'2 3.2
2018-Feb-17 17:43N 29°34' W 094°25'1 3.6
2018-Feb-17 17:30N 29°34' W 094°26'11 0.7
2018-Feb-17 02:54N 29°29' W 094°37'0 0.0
2018-Feb-17 02:29N 29°29' W 094°37'0 0.0
2018-Feb-17 01:58N 29°29' W 094°37'0 0.0
2018-Feb-17 01:30N 29°29' W 094°37'1 0.5
2018-Feb-17 00:12N 29°28' W 094°38'1 5.5
2018-Feb-17 00:00N 29°28' W 094°39'9 4.0
2018-Feb-16 21:43N 29°22' W 094°47'9 3.9
2018-Feb-16 19:22N 29°30' W 094°52'3 8.0
2018-Feb-16 18:57N 29°33' W 094°55'3 7.3
2018-Feb-16 18:30N 29°36' W 094°57'4 7.1
2018-Feb-16 18:00N 29°39' W 094°58'4 7.1
2018-Feb-16 17:30N 29°42' W 095°00'3 6.8
2018-Feb-16 17:00N 29°44' W 095°03'3 5.2
2018-Feb-16 16:25N 29°46' W 095°06'1 1.4
2018-Feb-16 15:59N 29°47' W 095°06'1 0.4
2018-Feb-16 14:46N 29°46' W 095°06'1 2.1
2018-Feb-16 14:29N 29°47' W 095°06'0 0.0
2018-Feb-16 10:58N 29°47' W 095°06'0 0.0
2018-Feb-16 09:54N 29°47' W 095°06'0 0.0
2018-Feb-16 09:27N 29°47' W 095°06'0 0.0
2018-Feb-16 09:00N 29°47' W 095°06'0 0.0
2018-Feb-16 08:23N 29°47' W 095°06'0 0.0
2018-Feb-16 07:56N 29°47' W 095°06'0 0.0
2018-Feb-16 07:27N 29°47' W 095°06'0 0.0
2018-Feb-16 06:58N 29°47' W 095°06'0 0.0
2018-Feb-16 06:30N 29°47' W 095°06'0 0.0
2018-Feb-16 05:58N 29°47' W 095°06'0 0.0
2018-Feb-16 05:27N 29°47' W 095°06'0 0.0
2018-Feb-16 05:00N 29°47' W 095°06'0 0.0
2018-Feb-16 04:29N 29°47' W 095°06'0 0.0
2018-Feb-16 03:59N 29°47' W 095°06'0 0.0
2018-Feb-16 03:30N 29°47' W 095°06'0 0.0
2018-Feb-16 02:57N 29°47' W 095°06'0 0.0
2018-Feb-16 02:24N 29°47' W 095°06'0 0.0
2018-Feb-16 01:55N 29°47' W 095°06'0 0.0
2018-Feb-16 01:24N 29°47' W 095°06'0 0.0
2018-Feb-16 00:59N 29°47' W 095°06'0 0.0
2018-Feb-15 19:35N 29°47' W 095°06'0 0.0
2018-Feb-15 10:16N 29°47' W 095°06'0 0.0
2018-Feb-15 10:00N 29°47' W 095°06'0 0.0
2018-Feb-15 09:29N 29°47' W 095°06'0 0.0
2018-Feb-15 08:58N 29°47' W 095°06'0 0.0
2018-Feb-15 08:29N 29°47' W 095°06'0 0.0
2018-Feb-15 07:59N 29°47' W 095°06'0 0.0
2018-Feb-15 07:30N 29°47' W 095°06'0 0.0
2018-Feb-15 07:00N 29°47' W 095°06'0 0.0
2018-Feb-15 06:29N 29°47' W 095°06'0 0.0
2018-Feb-15 06:00N 29°47' W 095°06'0 0.0
2018-Feb-15 05:30N 29°47' W 095°06'0 0.0
2018-Feb-15 04:59N 29°47' W 095°06'0 0.0
2018-Feb-15 04:30N 29°47' W 095°06'0 0.0
2018-Feb-15 03:54N 29°47' W 095°06'0 0.0
2018-Feb-15 03:14N 29°47' W 095°06'0 0.0
2018-Feb-15 02:55N 29°47' W 095°06'0 0.0
2018-Feb-15 02:27N 29°47' W 095°06'0 0.0
2018-Feb-14 23:03N 29°47' W 095°06'0 0.0
2018-Feb-14 22:39N 29°47' W 095°06'0 0.0
2018-Feb-14 21:30N 29°47' W 095°06'0 0.0
2018-Feb-14 20:56N 29°47' W 095°06'0 0.0
2018-Feb-14 17:50N 29°47' W 095°06'0 0.0
2018-Feb-14 17:28N 29°47' W 095°06'0 0.0
2018-Feb-14 16:55N 29°47' W 095°06'0 0.0
2018-Feb-14 16:18N 29°47' W 095°06'0 0.0
2018-Feb-14 15:18N 29°47' W 095°06'0 0.0
2018-Feb-14 15:00N 29°47' W 095°06'0 0.0
2018-Feb-14 14:05N 29°47' W 095°06'0 0.0
2018-Feb-14 13:58N 29°47' W 095°06'0 0.0
2018-Feb-14 13:27N 29°47' W 095°06'  

Dump ship's entire track history